SAMESABE

Guest
Details From SAME - El Plumerillo
To SABE - Aeroparque Jorge Newbery
Flight Number -
Tags Generated
Created
Modified
Stats Distance 529 nm / 980 km
Max Altitude 0 ft / 0 m
Waypoints 4
Social Downloads 5
Likes 0
Share VATSIM

Download

Looking for another format? Having issues loading an existing format? Contact us
Advertisement - Login to hide

Notes

Generated

Route

SAME ALDOR OZ SABE

ID Type Via Altitude Latitude Longitude Leg Dist Tot Dist Heading (true) Name
O SAME APT - 0 ft / 0 m -32.81817˚ -68.79271˚ - 0 nm - -
ALDOR FIX - 0 ft / 0 m -33.49972˚ -63.91833˚ 248 nm 248 nm 101° / 98° -
OZ NDB - 0 ft / 0 m -34.48333˚ -58.82167˚ 260 nm 508 nm 105° / 102° MARIANO MORENO NDB
O SABE APT - 0 ft / 0 m -34.55416˚ -58.42526˚ 20 nm 529 nm 102° / 102° -

Altitude Profile

Advertisement - Login to hide

Weather


0- 5 10 15 20 25 30 35+ Temperature / ° C

Clouds and Precipitation
Forecast for 2017-12-13 18:00 UTC. Updated an hour ago

Ground ~20,000 ft ~40,000 ft Winds

SAME

Details ICAO SAME (MDZ)
Name El Plumerillo
Region Argentina
Timezone America/Argentina/Mendoza (UTC-3.0)
Stats Elevation 2,310 ft / 704 m (AMSL)
Location -32.831753° -68.792941°
Runways 1
Magnetic Variation 0.380° W

METAR

SAME 131800Z 09005KT 020V140 9999 SCT045 SCT050 27/11 Q1013

Decode

TAF

TAF SAME 131700Z 1318/1418 14010KT 9999 SCT030 FEW050TCU TX32/1320Z TN20/1410Z

Decode

Departure Runways

ID Width Length Bearing (true) Bearing (mag) Surface Threshold Offset Overrun Length
18 177 ft / 54 m 9,915 ft / 3,022 m 180.83° 181.21° Concrete 381 ft / 116 m 0 ft / 0 m
36 177 ft / 54 m 9,915 ft / 3,022 m 0.83° 1.21° Concrete 361 ft / 110 m 0 ft / 0 m

SABE

Details ICAO SABE (AEP)
Name Aeroparque Jorge Newbery
Region Argentina
Timezone Unknown (UTC+0.0)
Stats Elevation 17 ft / 5 m (AMSL)
Location -34.559414° -58.415749°
Runways 1
Magnetic Variation 8.980° W

METAR

SABE 131800Z 36003KT CAVOK 30/13 Q1009

Decode

TAF

TAF SABE 131700Z 1318/1418 02005KT CAVOK TX31/1319Z TN21/1409Z BECMG 1320/1323 09010KT 9999 SCT030 BKN100 PROB30 1323/1402 6000 TSRA SCT030 FEW045CB BKN040 BECMG 1402/1404 25010KT 9999 SCT030

Decode

Destination Runways

ID Width Length Bearing (true) Bearing (mag) Surface Threshold Offset Overrun Length
13 131 ft / 40 m 6,882 ft / 2,098 m 123.87° 132.85° Concrete 0 ft / 0 m 791 ft / 241 m
31 131 ft / 40 m 6,882 ft / 2,098 m 303.86° 312.84° Concrete 991 ft / 302 m 0 ft / 0 m

Approach Navaids

Runway Type Ident Frequency Range Bearing (true) Bearing (mag) Slope Elevation
13 Localiser AE 109.50 MHz 18 nm / 33 km 123.95° 132.93° - 17 ft / 5 m (AMSL)
13 Glidescope AE 109.50 MHz 10 nm / 19 km 124.47° 133.45° 3.00° 17 ft / 5 m (AMSL)
13 DME AE 109.50 MHz 18 nm / 33 km - - - 17 ft / 5 m (AMSL)

Popular Alternatives